Time;durP1;ratioP1;P1;durP2;ratioP2;P2;SDS_P1;SDS_P2;PMS_P1;PMS_P2;Temp;Humidity;BMP_temperature;BMP_pressure;BME280_temperature;BME280_humidity;BME280_pressure;Samples;Min_cycle;Max_cycle;Signal;HPM_P1;HPM_P2
2022/03/24 00:07:07;;;;;;;23.80;18.90;;;;;;;5.60;38.54;100604.52;429712;1269;560601;-60
2022/03/24 00:17:13;;;;;;;28.90;18.00;;;;;;;5.33;39.63;100601.91;432669;1270;141230;-58
2022/03/24 00:27:19;;;;;;;30.80;19.40;;;;;;;5.03;40.09;100598.16;431268;1270;164356;-59
2022/03/24 00:37:25;;;;;;;31.80;20.30;;;;;;;4.69;40.77;100594.11;431503;1270;141861;-59
2022/03/24 00:47:31;;;;;;;35.20;21.30;;;;;;;4.47;41.46;100592.17;431160;1270;141463;-59
2022/03/24 00:57:37;;;;;;;32.90;21.90;;;;;;;4.27;41.76;100592.61;433287;1270;142223;-58
2022/03/24 01:07:43;;;;;;;25.80;17.50;;;;;;;4.05;42.21;100601.03;430989;1270;145450;-60
2022/03/24 01:17:50;;;;;;;30.20;18.70;;;;;;;3.79;42.61;100600.16;430834;1270;141267;-60
2022/03/24 01:27:56;;;;;;;30.40;21.20;;;;;;;3.54;43.12;100600.48;431611;1270;141764;-60
2022/03/24 01:38:03;;;;;;;34.20;22.20;;;;;;;3.35;43.71;100598.92;430717;1270;142461;-58
2022/03/24 01:48:09;;;;;;;37.70;22.80;;;;;;;3.12;44.83;100598.10;431759;1270;142337;-57
2022/03/24 01:58:15;;;;;;;40.30;24.10;;;;;;;2.98;45.48;100607.67;432778;1270;143512;-57
2022/03/24 02:08:21;;;;;;;33.50;21.80;;;;;;;2.83;46.19;100606.52;432340;1270;143401;-58
2022/03/24 02:18:27;;;;;;;34.70;24.30;;;;;;;2.64;46.68;100606.48;431342;1270;142967;-58
2022/03/24 02:28:33;;;;;;;38.70;24.90;;;;;;;2.44;47.26;100610.04;431292;1270;145558;-57
2022/03/24 02:38:39;;;;;;;37.80;26.60;;;;;;;2.18;47.83;100607.45;432404;1270;141639;-56
2022/03/24 02:48:44;;;;;;;42.00;28.10;;;;;;;2.05;48.65;100620.72;431350;1269;142115;-57
2022/03/24 02:58:50;;;;;;;35.60;23.40;;;;;;;1.91;48.93;100622.45;431040;1267;142296;-57
2022/03/24 03:08:56;;;;;;;31.90;21.70;;;;;;;1.83;49.53;100630.48;430751;1270;141658;-57
2022/03/24 03:19:03;;;;;;;31.20;21.10;;;;;;;1.69;49.92;100638.58;430545;1270;146662;-56
2022/03/24 03:29:10;;;;;;;33.80;21.90;;;;;;;1.55;50.45;100643.20;431644;1270;140987;-56
2022/03/24 03:39:16;;;;;;;32.80;20.20;;;;;;;1.36;50.79;100645.43;432440;1270;142629;-59
2022/03/24 03:49:22;;;;;;;30.70;21.00;;;;;;;1.16;51.44;100638.37;431791;1270;142381;-57
2022/03/24 03:59:48;;;;;;;32.90;22.80;;;;;;;0.94;52.08;100641.81;431628;1270;141517;-58
2022/03/24 04:09:54;;;;;;;33.20;23.80;;;;;;;0.73;52.38;100637.98;429610;1270;141750;-55
2022/03/24 04:19:59;;;;;;;27.40;20.70;;;;;;;0.54;52.59;100637.59;431754;1270;147180;-57
2022/03/24 04:30:06;;;;;;;35.50;22.70;;;;;;;0.30;53.32;100643.56;431526;1270;142730;-56
2022/03/24 04:40:15;;;;;;;28.50;20.10;;;;;;;0.14;53.84;100650.37;429724;1270;145204;-59
2022/03/24 04:50:21;;;;;;;35.70;21.80;;;;;;;0.05;54.11;100658.32;431956;1271;142095;-57
2022/03/24 05:00:27;;;;;;;39.40;24.20;;;;;;;0.07;54.30;100657.27;431259;1269;143646;-57
2022/03/24 05:10:33;;;;;;;34.50;23.30;;;;;;;0.20;54.11;100656.88;432312;1271;143271;-56
2022/03/24 05:20:39;;;;;;;36.80;25.90;;;;;;;0.47;54.29;100660.90;437330;1270;145309;-57
2022/03/24 05:30:45;;;;;;;35.50;24.10;;;;;;;0.83;54.13;100662.23;430957;1270;142534;-57
2022/03/24 05:40:52;;;;;;;36.40;23.90;;;;;;;3.09;53.66;100668.54;432836;1270;140927;-58
2022/03/24 05:50:59;;;;;;;34.20;24.10;;;;;;;10.89;46.17;100657.80;433979;1270;180895;-57
2022/03/24 06:01:06;;;;;;;29.30;23.70;;;;;;;16.90;37.99;100658.39;430559;1270;142619;-58
2022/03/24 06:11:13;;;;;;;25.10;21.10;;;;;;;22.20;32.05;100651.85;431369;1270;141880;-57
2022/03/24 06:21:18;;;;;;;21.70;19.20;;;;;;;26.03;27.00;100645.82;430409;1271;143401;-56
2022/03/24 06:31:24;;;;;;;29.30;25.10;;;;;;;28.76;23.44;100645.62;432716;1270;141537;-57
2022/03/24 06:41:30;;;;;;;34.20;26.90;;;;;;;30.86;21.11;100652.87;431228;1270;142239;-58
2022/03/24 06:51:36;;;;;;;26.60;23.70;;;;;;;33.56;18.92;100653.73;432490;1270;142875;-59
2022/03/24 07:01:42;;;;;;;27.00;24.10;;;;;;;34.44;17.11;100665.25;432090;1271;140602;-57
2022/03/24 07:11:48;;;;;;;25.90;23.30;;;;;;;36.48;15.84;100668.88;432220;1270;142046;-58
2022/03/24 07:21:54;;;;;;;31.80;22.40;;;;;;;37.37;14.66;100667.09;431333;1271;142454;-55
2022/03/24 07:32:01;;;;;;;26.00;21.40;;;;;;;37.80;13.92;100664.02;431159;1271;146625;-58
2022/03/24 07:42:09;;;;;;;23.10;20.70;;;;;;;38.73;13.20;100669.91;431685;1270;141614;-57
2022/03/24 07:52:17;;;;;;;23.50;17.70;;;;;;;36.64;12.80;100672.23;430000;1270;142363;-57
2022/03/24 08:02:23;;;;;;;19.20;16.90;;;;;;;35.97;13.11;100668.87;430019;1270;142760;-57
2022/03/24 08:12:29;;;;;;;15.50;13.90;;;;;;;36.60;12.60;100673.57;429860;1270;143825;-64
2022/03/24 08:22:35;;;;;;;14.30;13.00;;;;;;;35.96;12.58;100673.98;433012;1270;142174;-63
2022/03/24 08:32:41;;;;;;;12.60;10.50;;;;;;;38.20;11.77;100674.77;436384;1270;140973;-61
2022/03/24 08:42:47;;;;;;;20.60;12.10;;;;;;;39.09;11.28;100671.08;429932;1270;142557;-60
2022/03/24 08:52:53;;;;;;;11.40;9.60;;;;;;;39.21;10.90;100665.69;433185;1270;140997;-72
2022/03/24 09:02:59;;;;;;;15.50;8.70;;;;;;;36.47;10.95;100668.17;445461;1270;141393;-62
2022/03/24 09:13:05;;;;;;;10.80;7.60;;;;;;;27.88;13.46;100670.33;432229;1270;141525;-62
2022/03/24 09:23:10;;;;;;;;;;;;;;;23.19;15.51;100678.67;431046;1270;142101;-61
2022/03/24 09:33:16;;;;;;;11.60;9.00;;;;;;;19.66;17.92;100680.63;431869;1270;127409;-61
2022/03/24 09:43:23;;;;;;;11.60;8.60;;;;;;;18.05;19.60;100679.70;431454;1269;142135;-64
2022/03/24 09:53:29;;;;;;;14.00;9.50;;;;;;;17.05;20.96;100677.00;431530;1270;141453;-62
2022/03/24 10:03:34;;;;;;;13.20;10.70;;;;;;;16.09;22.02;100678.27;429907;1270;142047;-59
2022/03/24 10:13:46;;;;;;;8.50;6.60;;;;;;;15.21;22.94;100685.05;431408;1269;142464;-58
2022/03/24 10:23:55;;;;;;;12.40;6.90;;;;;;;14.86;23.34;100686.59;430933;1269;142433;-60
2022/03/24 10:34:02;;;;;;;8.80;6.50;;;;;;;14.38;23.81;100682.89;431494;1270;141723;-63
2022/03/24 10:44:11;;;;;;;11.20;6.10;;;;;;;14.06;24.29;100674.30;432527;1270;140908;-62
2022/03/24 10:54:25;;;;;;;10.50;4.80;;;;;;;13.77;24.71;100674.45;431597;1270;141259;-59
2022/03/24 11:04:32;;;;;;;10.40;6.60;;;;;;;13.44;25.08;100671.27;432724;1270;214135;-60
2022/03/24 11:14:44;;;;;;;15.50;7.90;;;;;;;13.12;25.77;100664.34;430996;1270;142072;-59
2022/03/24 11:24:51;;;;;;;16.30;9.00;;;;;;;13.09;26.51;100648.46;431742;1270;141967;-62
2022/03/24 11:34:58;;;;;;;11.60;7.80;;;;;;;13.09;26.75;100639.86;432441;1270;141972;-61
2022/03/24 11:45:09;;;;;;;13.10;5.60;;;;;;;13.15;26.47;100635.30;431515;1270;141818;-58
2022/03/24 11:55:18;;;;;;;9.50;5.30;;;;;;;13.01;26.62;100628.40;430773;1270;142413;-58
2022/03/24 12:05:46;;;;;;;12.60;5.60;;;;;;;12.75;26.84;100624.23;435084;1270;214845;-56
2022/03/24 12:16:18;;;;;;;9.00;4.50;;;;;;;12.70;26.93;100617.84;431046;1270;142553;-58
2022/03/24 12:26:25;;;;;;;18.50;7.10;;;;;;;12.72;27.01;100608.24;432154;1270;141134;-59
2022/03/24 12:36:41;;;;;;;7.80;5.20;;;;;;;12.70;27.17;100604.31;430956;1269;142698;-56
2022/03/24 12:46:47;;;;;;;12.80;6.60;;;;;;;12.55;27.36;100601.65;431343;1270;141008;-59
2022/03/24 12:57:13;;;;;;;10.60;5.10;;;;;;;12.44;27.87;100592.39;430788;1270;141480;-60
2022/03/24 13:07:24;;;;;;;14.60;6.50;;;;;;;12.54;27.86;100587.44;431139;1270;142116;-59
2022/03/24 13:17:36;;;;;;;8.80;5.90;;;;;;;12.60;27.98;100583.95;430625;1270;182633;-61
2022/03/24 13:27:45;;;;;;;12.80;6.30;;;;;;;12.53;28.04;100570.13;434845;1270;194192;-57
2022/03/24 13:37:54;;;;;;;7.70;5.50;;;;;;;12.58;28.09;100566.31;431615;1270;141170;-58
2022/03/24 13:48:02;;;;;;;13.70;6.80;;;;;;;12.56;27.80;100559.44;432449;1269;140913;-60
2022/03/24 13:58:12;;;;;;;6.50;5.70;;;;;;;12.54;28.05;100550.23;430663;1269;141463;-60
2022/03/24 14:08:29;;;;;;;18.50;5.70;;;;;;;12.49;28.10;100545.77;431378;1270;141521;-57
2022/03/24 14:18:35;;;;;;;12.50;4.70;;;;;;;12.50;28.08;100537.29;430807;1270;140967;-59
2022/03/24 14:28:44;;;;;;;11.60;6.60;;;;;;;12.43;28.21;100532.89;431252;1270;141644;-57
2022/03/24 14:39:13;;;;;;;7.70;5.10;;;;;;;12.37;28.26;100527.29;431868;1270;146047;-57
2022/03/24 14:49:19;;;;;;;13.80;6.30;;;;;;;12.37;28.38;100517.79;432547;1270;140168;-58
2022/03/24 14:59:25;;;;;;;7.10;4.50;;;;;;;12.33;28.35;100508.21;430954;1270;145063;-59
2022/03/24 15:09:32;;;;;;;8.60;5.50;;;;;;;12.28;28.43;100502.70;430976;1270;145184;-57
2022/03/24 15:19:39;;;;;;;8.20;5.90;;;;;;;12.48;28.54;100499.11;430847;1270;141830;-58
2022/03/24 15:29:45;;;;;;;7.40;4.90;;;;;;;12.54;28.44;100496.10;431223;1270;141271;-61
2022/03/24 15:39:51;;;;;;;13.30;6.00;;;;;;;12.19;28.55;100496.69;430539;1270;141239;-62
2022/03/24 15:49:57;;;;;;;9.00;5.90;;;;;;;12.00;28.88;100498.97;430675;1270;141130;-61
2022/03/24 16:00:04;;;;;;;12.30;5.40;;;;;;;11.79;29.14;100502.88;431474;1270;143314;-59
2022/03/24 16:10:13;;;;;;;9.70;6.30;;;;;;;11.54;29.46;100497.19;432943;1270;142503;-54
2022/03/24 16:20:20;;;;;;;14.60;6.30;;;;;;;11.32;29.61;100493.11;434364;1270;142636;-62
2022/03/24 16:30:25;;;;;;;21.50;7.70;;;;;;;11.06;30.00;100499.85;431274;1270;141113;-59
2022/03/24 16:40:32;;;;;;;15.30;7.80;;;;;;;10.81;30.44;100496.92;431335;1270;141763;-59
2022/03/24 16:50:38;;;;;;;9.70;7.00;;;;;;;10.52;30.78;100498.68;430262;1270;141686;-54
2022/03/24 17:00:44;;;;;;;11.00;7.00;;;;;;;10.18;31.26;100503.48;429970;1270;142848;-60
2022/03/24 17:10:56;;;;;;;15.80;9.00;;;;;;;9.90;31.79;100516.31;430151;1270;141297;-60
2022/03/24 17:21:02;;;;;;;13.60;7.60;;;;;;;9.55;32.50;100522.80;431545;1271;141645;-61
2022/03/24 17:31:08;;;;;;;33.00;9.70;;;;;;;9.14;32.86;100526.29;429952;1270;141728;-65
2022/03/24 17:41:13;;;;;;;19.70;8.30;;;;;;;8.76;33.49;100525.62;431923;1269;141952;-64
2022/03/24 17:51:19;;;;;;;20.80;10.00;;;;;;;8.39;34.33;100534.38;430803;1270;146100;-51
2022/03/24 18:01:25;;;;;;;20.40;10.40;;;;;;;8.05;35.26;100529.23;431153;1270;142589;-54
2022/03/24 18:11:31;;;;;;;31.40;13.00;;;;;;;7.73;35.80;100526.28;431903;1270;141499;-56
2022/03/24 18:21:37;;;;;;;38.70;20.60;;;;;;;7.41;36.54;100530.36;430834;1270;142340;-51
2022/03/24 18:31:44;;;;;;;35.60;17.40;;;;;;;7.11;37.41;100535.27;431124;1270;141882;-51
2022/03/24 18:41:50;;;;;;;56.40;24.20;;;;;;;6.78;38.27;100537.20;431195;1270;140895;-54
2022/03/24 18:51:56;;;;;;;39.80;17.70;;;;;;;6.43;39.16;100539.73;430953;1270;143039;-58
2022/03/24 19:02:02;;;;;;;41.40;15.00;;;;;;;6.07;40.27;100545.34;447759;1269;142612;-59
2022/03/24 19:12:10;;;;;;;43.00;17.40;;;;;;;5.75;41.10;100551.44;434931;1270;145582;-58
2022/03/24 19:22:16;;;;;;;43.90;18.00;;;;;;;5.47;41.74;100554.81;432118;1271;142190;-59
2022/03/24 19:32:22;;;;;;;44.30;21.20;;;;;;;5.22;42.36;100556.88;432812;1270;141622;-58
2022/03/24 19:42:29;;;;;;;38.20;18.20;;;;;;;4.94;42.77;100556.89;431102;1270;141469;-59
2022/03/24 19:52:35;;;;;;;33.70;18.40;;;;;;;4.70;43.23;100559.02;432648;1270;141329;-59
2022/03/24 20:02:41;;;;;;;42.80;21.50;;;;;;;4.53;43.57;100557.18;430452;1270;142416;-59
2022/03/24 20:12:48;;;;;;;44.80;21.60;;;;;;;4.36;44.04;100553.42;429769;1270;141254;-57
2022/03/24 20:22:54;;;;;;;40.70;20.50;;;;;;;4.19;44.72;100552.41;432303;1269;140969;-64
2022/03/24 20:33:00;;;;;;;45.80;22.50;;;;;;;4.01;45.12;100552.61;430800;1270;141491;-59
2022/03/24 20:43:07;;;;;;;45.50;22.00;;;;;;;3.83;45.66;100551.94;430229;1270;142770;-58
2022/03/24 20:53:14;;;;;;;42.20;24.40;;;;;;;3.63;46.16;100554.60;432538;1270;140517;-58
2022/03/24 21:03:20;;;;;;;47.50;24.60;;;;;;;3.42;46.74;100566.23;431569;1271;141929;-61
2022/03/24 21:13:26;;;;;;;45.60;25.00;;;;;;;3.17;47.52;100559.59;431979;1270;143679;-58
2022/03/24 21:23:34;;;;;;;42.30;24.20;;;;;;;2.95;48.14;100556.16;432682;1271;143340;-58
2022/03/24 21:33:40;;;;;;;51.80;26.40;;;;;;;2.75;48.76;100556.16;431396;1270;141831;-60
2022/03/24 21:43:46;;;;;;;44.10;25.20;;;;;;;2.54;49.34;100563.22;431858;1269;141354;-58
2022/03/24 21:53:51;;;;;;;51.40;29.50;;;;;;;2.35;49.84;100562.80;431091;1269;141688;-60
2022/03/24 22:03:57;;;;;;;96.00;54.20;;;;;;;2.17;50.20;100561.15;430810;1271;192364;-59
2022/03/24 22:14:03;;;;;;;65.90;38.40;;;;;;;1.99;50.85;100558.45;431498;1271;141897;-59
2022/03/24 22:24:10;;;;;;;76.00;43.80;;;;;;;1.78;51.42;100558.35;431164;1270;141936;-58
2022/03/24 22:34:16;;;;;;;83.50;49.60;;;;;;;1.59;51.88;100560.14;431258;1271;142265;-58
2022/03/24 22:44:24;;;;;;;92.40;50.80;;;;;;;1.44;52.19;100557.38;431240;1270;141870;-60
2022/03/24 22:54:30;;;;;;;88.60;47.10;;;;;;;1.30;52.78;100553.20;432447;1270;141862;-58
2022/03/24 23:04:36;;;;;;;96.60;57.40;;;;;;;1.20;53.30;100553.14;431209;1271;141273;-58
2022/03/24 23:14:42;;;;;;;120.80;70.80;;;;;;;1.11;53.63;100552.00;432030;1270;142028;-58
2022/03/24 23:24:48;;;;;;;106.30;62.60;;;;;;;0.98;54.09;100553.52;430941;1271;141063;-58
2022/03/24 23:34:54;;;;;;;107.80;62.20;;;;;;;0.80;54.52;100552.28;431259;1270;142356;-58
2022/03/24 23:45:00;;;;;;;113.20;69.10;;;;;;;0.63;54.91;100554.48;431215;1271;142432;-60
2022/03/24 23:55:08;;;;;;;118.90;70.10;;;;;;;0.49;55.00;100557.67;430852;1270;142935;-58
